sensor_id;sensor_type;location;lat;lon;timestamp;temperature;humidity
24518;DHT22;12678;51.336;12.406;2022-10-31T00:00:46;15.00;99.90
24518;DHT22;12678;51.336;12.406;2022-10-31T00:03:11;14.60;99.90
24518;DHT22;12678;51.336;12.406;2022-10-31T00:05:40;14.60;99.90
24518;DHT22;12678;51.336;12.406;2022-10-31T00:08:06;14.50;99.90
24518;DHT22;12678;51.336;12.406;2022-10-31T00:10:31;14.50;99.90
24518;DHT22;12678;51.336;12.406;2022-10-31T00:12:57;14.50;99.90
24518;DHT22;12678;51.336;12.406;2022-10-31T00:15:22;14.60;99.90
24518;DHT22;12678;51.336;12.406;2022-10-31T00:17:48;14.60;99.90
24518;DHT22;12678;51.336;12.406;2022-10-31T00:20:13;14.60;99.90
24518;DHT22;12678;51.336;12.406;2022-10-31T00:22:38;14.60;99.90
24518;DHT22;12678;51.336;12.406;2022-10-31T00:25:04;14.60;99.90
24518;DHT22;12678;51.336;12.406;2022-10-31T00:27:30;14.60;99.90
24518;DHT22;12678;51.336;12.406;2022-10-31T00:29:55;14.60;99.90
24518;DHT22;12678;51.336;12.406;2022-10-31T00:32:20;14.60;99.90
24518;DHT22;12678;51.336;12.406;2022-10-31T00:34:46;14.70;99.90
24518;DHT22;12678;51.336;12.406;2022-10-31T00:37:11;14.70;99.90
24518;DHT22;12678;51.336;12.406;2022-10-31T00:39:37;14.70;99.90
24518;DHT22;12678;51.336;12.406;2022-10-31T00:42:02;14.60;99.90
24518;DHT22;12678;51.336;12.406;2022-10-31T00:44:28;14.60;99.90
24518;DHT22;12678;51.336;12.406;2022-10-31T00:46:53;14.60;99.90
24518;DHT22;12678;51.336;12.406;2022-10-31T00:49:19;14.60;99.90
24518;DHT22;12678;51.336;12.406;2022-10-31T00:51:44;14.50;99.90
24518;DHT22;12678;51.336;12.406;2022-10-31T00:54:10;14.50;99.90
24518;DHT22;12678;51.336;12.406;2022-10-31T00:56:35;14.50;99.90
24518;DHT22;12678;51.336;12.406;2022-10-31T00:59:00;14.50;99.90
24518;DHT22;12678;51.336;12.406;2022-10-31T01:01:26;14.50;99.90
24518;DHT22;12678;51.336;12.406;2022-10-31T01:03:51;14.40;99.90
24518;DHT22;12678;51.336;12.406;2022-10-31T01:06:17;14.40;99.90
24518;DHT22;12678;51.336;12.406;2022-10-31T01:08:42;14.40;99.90
24518;DHT22;12678;51.336;12.406;2022-10-31T01:13:34;14.30;99.90
24518;DHT22;12678;51.336;12.406;2022-10-31T01:16:00;14.40;99.90
24518;DHT22;12678;51.336;12.406;2022-10-31T01:18:26;14.30;99.90
24518;DHT22;12678;51.336;12.406;2022-10-31T01:20:59;14.30;99.90
24518;DHT22;12678;51.336;12.406;2022-10-31T01:23:25;14.30;99.90
24518;DHT22;12678;51.336;12.406;2022-10-31T01:28:16;14.20;99.90
24518;DHT22;12678;51.336;12.406;2022-10-31T01:30:41;14.20;99.90
24518;DHT22;12678;51.336;12.406;2022-10-31T01:33:07;14.10;99.90
24518;DHT22;12678;51.336;12.406;2022-10-31T01:35:32;14.10;99.90
24518;DHT22;12678;51.336;12.406;2022-10-31T01:37:58;14.10;99.90
24518;DHT22;12678;51.336;12.406;2022-10-31T01:40:23;14.10;99.90
24518;DHT22;12678;51.336;12.406;2022-10-31T01:42:49;14.10;99.90
24518;DHT22;12678;51.336;12.406;2022-10-31T01:45:14;14.00;99.90
24518;DHT22;12678;51.336;12.406;2022-10-31T01:47:44;14.10;99.90
24518;DHT22;12678;51.336;12.406;2022-10-31T01:50:12;14.10;99.90
24518;DHT22;12678;51.336;12.406;2022-10-31T01:52:40;14.10;99.90
24518;DHT22;12678;51.336;12.406;2022-10-31T01:55:11;14.10;99.90
24518;DHT22;12678;51.336;12.406;2022-10-31T01:57:38;14.10;99.90
24518;DHT22;12678;51.336;12.406;2022-10-31T02:00:06;14.10;99.90
24518;DHT22;12678;51.336;12.406;2022-10-31T02:02:33;14.10;99.90
24518;DHT22;12678;51.336;12.406;2022-10-31T02:04:59;14.10;99.90
24518;DHT22;12678;51.336;12.406;2022-10-31T02:07:26;14.00;99.90
24518;DHT22;12678;51.336;12.406;2022-10-31T02:09:53;14.10;99.90
24518;DHT22;12678;51.336;12.406;2022-10-31T02:12:19;14.00;99.90
24518;DHT22;12678;51.336;12.406;2022-10-31T02:14:45;14.00;99.90
24518;DHT22;12678;51.336;12.406;2022-10-31T02:17:11;13.90;99.90
24518;DHT22;12678;51.336;12.406;2022-10-31T02:19:58;13.90;99.90
24518;DHT22;12678;51.336;12.406;2022-10-31T02:22:36;13.90;99.90
24518;DHT22;12678;51.336;12.406;2022-10-31T02:30:23;13.90;99.90
24518;DHT22;12678;51.336;12.406;2022-10-31T02:32:52;13.90;99.90
24518;DHT22;12678;51.336;12.406;2022-10-31T02:40:23;13.80;99.90
24518;DHT22;12678;51.336;12.406;2022-10-31T02:42:56;13.80;99.90
24518;DHT22;12678;51.336;12.406;2022-10-31T02:45:26;13.80;99.90
24518;DHT22;12678;51.336;12.406;2022-10-31T02:47:53;13.80;99.90
24518;DHT22;12678;51.336;12.406;2022-10-31T02:52:49;13.80;99.90
24518;DHT22;12678;51.336;12.406;2022-10-31T02:57:50;13.70;99.90
24518;DHT22;12678;51.336;12.406;2022-10-31T03:58:43;13.50;99.90
24518;DHT22;12678;51.336;12.406;2022-10-31T04:01:11;13.40;99.90
24518;DHT22;12678;51.336;12.406;2022-10-31T04:03:37;13.40;99.90
24518;DHT22;12678;51.336;12.406;2022-10-31T04:06:04;13.50;99.90
24518;DHT22;12678;51.336;12.406;2022-10-31T04:08:32;13.40;99.90
24518;DHT22;12678;51.336;12.406;2022-10-31T04:10:59;13.40;99.90
24518;DHT22;12678;51.336;12.406;2022-10-31T04:13:29;13.40;99.90
24518;DHT22;12678;51.336;12.406;2022-10-31T04:15:55;13.40;99.90
24518;DHT22;12678;51.336;12.406;2022-10-31T04:18:23;13.30;99.90
24518;DHT22;12678;51.336;12.406;2022-10-31T04:20:58;13.30;99.90
24518;DHT22;12678;51.336;12.406;2022-10-31T04:23:25;13.30;99.90
24518;DHT22;12678;51.336;12.406;2022-10-31T04:25:50;13.30;99.90
24518;DHT22;12678;51.336;12.406;2022-10-31T04:28:16;13.30;99.90
24518;DHT22;12678;51.336;12.406;2022-10-31T04:30:41;13.30;99.90
24518;DHT22;12678;51.336;12.406;2022-10-31T04:33:07;13.20;99.90
24518;DHT22;12678;51.336;12.406;2022-10-31T04:35:32;13.20;99.90
24518;DHT22;12678;51.336;12.406;2022-10-31T04:37:58;13.30;99.90
24518;DHT22;12678;51.336;12.406;2022-10-31T04:40:23;13.30;99.90
24518;DHT22;12678;51.336;12.406;2022-10-31T04:42:48;13.30;99.90
24518;DHT22;12678;51.336;12.406;2022-10-31T04:45:14;13.30;99.90
24518;DHT22;12678;51.336;12.406;2022-10-31T04:47:40;13.20;99.90
24518;DHT22;12678;51.336;12.406;2022-10-31T04:50:05;13.20;99.90
24518;DHT22;12678;51.336;12.406;2022-10-31T04:52:31;13.10;99.90
24518;DHT22;12678;51.336;12.406;2022-10-31T04:54:57;13.20;99.90
24518;DHT22;12678;51.336;12.406;2022-10-31T04:57:22;13.10;99.90
24518;DHT22;12678;51.336;12.406;2022-10-31T04:59:48;13.20;99.90
24518;DHT22;12678;51.336;12.406;2022-10-31T05:02:13;13.10;99.90
24518;DHT22;12678;51.336;12.406;2022-10-31T05:04:39;13.10;99.90
24518;DHT22;12678;51.336;12.406;2022-10-31T05:07:04;13.10;99.90
24518;DHT22;12678;51.336;12.406;2022-10-31T05:09:29;13.10;99.90
24518;DHT22;12678;51.336;12.406;2022-10-31T05:11:55;13.00;99.90
24518;DHT22;12678;51.336;12.406;2022-10-31T05:19:12;13.00;99.90
24518;DHT22;12678;51.336;12.406;2022-10-31T05:21:37;12.90;99.90
24518;DHT22;12678;51.336;12.406;2022-10-31T05:24:03;12.90;99.90
24518;DHT22;12678;51.336;12.406;2022-10-31T05:26:28;12.90;99.90
24518;DHT22;12678;51.336;12.406;2022-10-31T05:28:54;13.00;99.90
24518;DHT22;12678;51.336;12.406;2022-10-31T05:31:19;12.90;99.90
24518;DHT22;12678;51.336;12.406;2022-10-31T05:33:45;12.90;99.90
24518;DHT22;12678;51.336;12.406;2022-10-31T05:36:11;12.90;99.90
24518;DHT22;12678;51.336;12.406;2022-10-31T05:38:36;12.80;99.90
24518;DHT22;12678;51.336;12.406;2022-10-31T05:41:02;12.80;99.90
24518;DHT22;12678;51.336;12.406;2022-10-31T05:43:28;12.80;99.90
24518;DHT22;12678;51.336;12.406;2022-10-31T05:45:53;12.80;99.90
24518;DHT22;12678;51.336;12.406;2022-10-31T05:48:19;12.80;99.90
24518;DHT22;12678;51.336;12.406;2022-10-31T05:50:44;12.80;99.90
24518;DHT22;12678;51.336;12.406;2022-10-31T05:53:10;12.70;99.90
24518;DHT22;12678;51.336;12.406;2022-10-31T05:55:35;12.80;99.90
24518;DHT22;12678;51.336;12.406;2022-10-31T05:58:01;12.70;99.90
24518;DHT22;12678;51.336;12.406;2022-10-31T06:00:27;12.70;99.90
24518;DHT22;12678;51.336;12.406;2022-10-31T06:02:59;12.70;99.90
24518;DHT22;12678;51.336;12.406;2022-10-31T06:05:25;12.70;99.90
24518;DHT22;12678;51.336;12.406;2022-10-31T06:07:51;12.70;99.90
24518;DHT22;12678;51.336;12.406;2022-10-31T06:10:16;12.70;99.90
24518;DHT22;12678;51.336;12.406;2022-10-31T06:12:42;12.70;99.90
24518;DHT22;12678;51.336;12.406;2022-10-31T06:15:08;12.70;99.90
24518;DHT22;12678;51.336;12.406;2022-10-31T06:17:34;12.70;99.90
24518;DHT22;12678;51.336;12.406;2022-10-31T06:19:59;12.60;99.90
24518;DHT22;12678;51.336;12.406;2022-10-31T06:22:25;12.70;99.90
24518;DHT22;12678;51.336;12.406;2022-10-31T06:24:51;12.70;99.90
24518;DHT22;12678;51.336;12.406;2022-10-31T06:27:16;12.70;99.90
24518;DHT22;12678;51.336;12.406;2022-10-31T06:29:42;12.70;99.90
24518;DHT22;12678;51.336;12.406;2022-10-31T06:32:11;12.80;99.90
24518;DHT22;12678;51.336;12.406;2022-10-31T06:34:37;12.80;99.90
24518;DHT22;12678;51.336;12.406;2022-10-31T06:37:02;12.80;99.90
24518;DHT22;12678;51.336;12.406;2022-10-31T06:39:28;12.80;99.90
24518;DHT22;12678;51.336;12.406;2022-10-31T06:41:54;12.90;99.90
24518;DHT22;12678;51.336;12.406;2022-10-31T06:44:19;12.90;99.90
24518;DHT22;12678;51.336;12.406;2022-10-31T06:46:47;12.90;99.90
24518;DHT22;12678;51.336;12.406;2022-10-31T06:49:13;13.00;99.90
24518;DHT22;12678;51.336;12.406;2022-10-31T06:51:39;13.00;99.90
24518;DHT22;12678;51.336;12.406;2022-10-31T06:54:04;13.00;99.90
24518;DHT22;12678;51.336;12.406;2022-10-31T06:56:30;13.00;99.90
24518;DHT22;12678;51.336;12.406;2022-10-31T06:58:55;13.00;99.90
24518;DHT22;12678;51.336;12.406;2022-10-31T07:01:21;13.00;99.90
24518;DHT22;12678;51.336;12.406;2022-10-31T07:03:46;13.00;99.90
24518;DHT22;12678;51.336;12.406;2022-10-31T07:06:12;13.00;99.90
24518;DHT22;12678;51.336;12.406;2022-10-31T07:08:38;13.10;99.90
24518;DHT22;12678;51.336;12.406;2022-10-31T07:11:04;13.10;99.90
24518;DHT22;12678;51.336;12.406;2022-10-31T07:13:29;13.20;99.90
24518;DHT22;12678;51.336;12.406;2022-10-31T07:16:00;13.20;99.90
24518;DHT22;12678;51.336;12.406;2022-10-31T07:47:44;13.20;99.90
24518;DHT22;12678;51.336;12.406;2022-10-31T07:50:14;13.80;99.90
24518;DHT22;12678;51.336;12.406;2022-10-31T07:52:40;13.90;99.90
24518;DHT22;12678;51.336;12.406;2022-10-31T07:55:05;13.90;99.90
24518;DHT22;12678;51.336;12.406;2022-10-31T07:57:31;14.00;99.90
24518;DHT22;12678;51.336;12.406;2022-10-31T07:59:57;14.00;99.90
24518;DHT22;12678;51.336;12.406;2022-10-31T08:02:23;13.90;99.90
24518;DHT22;12678;51.336;12.406;2022-10-31T08:04:48;14.00;99.90
24518;DHT22;12678;51.336;12.406;2022-10-31T08:07:14;14.10;99.90
24518;DHT22;12678;51.336;12.406;2022-10-31T08:09:40;14.10;99.90
24518;DHT22;12678;51.336;12.406;2022-10-31T08:12:06;14.30;99.90
24518;DHT22;12678;51.336;12.406;2022-10-31T08:14:31;14.30;99.90
24518;DHT22;12678;51.336;12.406;2022-10-31T08:16:57;14.30;99.90
24518;DHT22;12678;51.336;12.406;2022-10-31T08:19:22;14.30;99.90
24518;DHT22;12678;51.336;12.406;2022-10-31T08:21:51;14.40;99.90
24518;DHT22;12678;51.336;12.406;2022-10-31T08:24:17;14.40;99.90
24518;DHT22;12678;51.336;12.406;2022-10-31T08:26:43;14.50;99.90
24518;DHT22;12678;51.336;12.406;2022-10-31T08:29:08;14.60;99.90
24518;DHT22;12678;51.336;12.406;2022-10-31T08:31:34;14.70;99.90
24518;DHT22;12678;51.336;12.406;2022-10-31T08:33:59;14.70;99.90
24518;DHT22;12678;51.336;12.406;2022-10-31T08:36:25;14.80;99.90
24518;DHT22;12678;51.336;12.406;2022-10-31T08:38:50;14.90;99.90
24518;DHT22;12678;51.336;12.406;2022-10-31T08:41:16;15.00;99.90
24518;DHT22;12678;51.336;12.406;2022-10-31T08:43:41;15.10;99.90
24518;DHT22;12678;51.336;12.406;2022-10-31T08:46:07;15.10;99.90
24518;DHT22;12678;51.336;12.406;2022-10-31T08:48:32;15.20;99.90
24518;DHT22;12678;51.336;12.406;2022-10-31T08:50:58;15.40;99.90
24518;DHT22;12678;51.336;12.406;2022-10-31T08:53:24;15.50;99.90
24518;DHT22;12678;51.336;12.406;2022-10-31T08:55:50;15.60;99.90
24518;DHT22;12678;51.336;12.406;2022-10-31T08:58:17;15.70;99.90
24518;DHT22;12678;51.336;12.406;2022-10-31T09:00:43;15.80;99.90
24518;DHT22;12678;51.336;12.406;2022-10-31T09:03:13;15.80;99.90
24518;DHT22;12678;51.336;12.406;2022-10-31T09:05:39;15.90;99.90
24518;DHT22;12678;51.336;12.406;2022-10-31T09:08:05;15.90;99.90
24518;DHT22;12678;51.336;12.406;2022-10-31T09:10:32;16.00;99.90
24518;DHT22;12678;51.336;12.406;2022-10-31T09:12:58;16.10;99.90
24518;DHT22;12678;51.336;12.406;2022-10-31T09:15:24;16.10;99.90
24518;DHT22;12678;51.336;12.406;2022-10-31T09:17:50;16.20;99.90
24518;DHT22;12678;51.336;12.406;2022-10-31T09:20:15;16.20;99.90
24518;DHT22;12678;51.336;12.406;2022-10-31T09:22:41;16.20;99.90
24518;DHT22;12678;51.336;12.406;2022-10-31T09:25:07;16.20;99.90
24518;DHT22;12678;51.336;12.406;2022-10-31T09:27:32;16.20;99.90
24518;DHT22;12678;51.336;12.406;2022-10-31T09:29:58;16.30;99.90
24518;DHT22;12678;51.336;12.406;2022-10-31T09:32:23;16.30;99.90
24518;DHT22;12678;51.336;12.406;2022-10-31T09:37:14;16.40;99.90
24518;DHT22;12678;51.336;12.406;2022-10-31T09:39:40;16.60;99.90
24518;DHT22;12678;51.336;12.406;2022-10-31T09:42:09;16.60;99.90
24518;DHT22;12678;51.336;12.406;2022-10-31T09:47:24;16.70;99.90
24518;DHT22;12678;51.336;12.406;2022-10-31T09:50:06;16.70;99.90
24518;DHT22;12678;51.336;12.406;2022-10-31T09:52:36;16.70;99.90
24518;DHT22;12678;51.336;12.406;2022-10-31T09:57:29;16.70;99.90
24518;DHT22;12678;51.336;12.406;2022-10-31T09:59:55;16.70;99.90
24518;DHT22;12678;51.336;12.406;2022-10-31T10:02:24;16.70;99.90
24518;DHT22;12678;51.336;12.406;2022-10-31T10:04:53;16.70;99.90
24518;DHT22;12678;51.336;12.406;2022-10-31T10:09:45;16.60;99.90
24518;DHT22;12678;51.336;12.406;2022-10-31T10:32:42;16.80;99.90
24518;DHT22;12678;51.336;12.406;2022-10-31T10:37:36;16.90;99.90
24518;DHT22;12678;51.336;12.406;2022-10-31T10:40:06;17.00;99.90
24518;DHT22;12678;51.336;12.406;2022-10-31T10:42:36;16.90;99.90
24518;DHT22;12678;51.336;12.406;2022-10-31T10:45:20;17.00;99.90
24518;DHT22;12678;51.336;12.406;2022-10-31T10:48:15;17.10;99.90
24518;DHT22;12678;51.336;12.406;2022-10-31T10:50:50;17.10;99.90
24518;DHT22;12678;51.336;12.406;2022-10-31T10:58:29;17.20;99.90
24518;DHT22;12678;51.336;12.406;2022-10-31T11:00:55;17.20;99.90
24518;DHT22;12678;51.336;12.406;2022-10-31T11:03:20;17.30;99.90
24518;DHT22;12678;51.336;12.406;2022-10-31T11:05:53;17.30;99.90
24518;DHT22;12678;51.336;12.406;2022-10-31T11:08:26;17.30;99.90
24518;DHT22;12678;51.336;12.406;2022-10-31T11:10:56;17.30;99.90
24518;DHT22;12678;51.336;12.406;2022-10-31T11:13:22;17.40;99.90
24518;DHT22;12678;51.336;12.406;2022-10-31T11:16:05;17.40;99.90
24518;DHT22;12678;51.336;12.406;2022-10-31T11:18:32;17.40;99.90
24518;DHT22;12678;51.336;12.406;2022-10-31T11:21:00;17.40;99.90
24518;DHT22;12678;51.336;12.406;2022-10-31T11:23:28;17.50;99.90
24518;DHT22;12678;51.336;12.406;2022-10-31T11:25:55;17.50;99.90
24518;DHT22;12678;51.336;12.406;2022-10-31T11:28:21;17.50;99.90
24518;DHT22;12678;51.336;12.406;2022-10-31T11:30:53;17.50;99.90
24518;DHT22;12678;51.336;12.406;2022-10-31T11:33:30;17.50;99.90
24518;DHT22;12678;51.336;12.406;2022-10-31T11:35:56;17.50;99.90
24518;DHT22;12678;51.336;12.406;2022-10-31T11:38:23;17.60;99.90
24518;DHT22;12678;51.336;12.406;2022-10-31T11:43:38;17.60;99.90
24518;DHT22;12678;51.336;12.406;2022-10-31T11:46:11;17.60;99.90
24518;DHT22;12678;51.336;12.406;2022-10-31T11:48:37;17.60;99.90
24518;DHT22;12678;51.336;12.406;2022-10-31T11:51:03;17.60;99.90
24518;DHT22;12678;51.336;12.406;2022-10-31T11:53:34;17.60;99.90
24518;DHT22;12678;51.336;12.406;2022-10-31T11:56:18;17.60;99.90
24518;DHT22;12678;51.336;12.406;2022-10-31T11:58:54;17.70;99.90
24518;DHT22;12678;51.336;12.406;2022-10-31T12:01:22;17.70;99.90
24518;DHT22;12678;51.336;12.406;2022-10-31T12:03:51;17.70;99.90
24518;DHT22;12678;51.336;12.406;2022-10-31T12:06:23;17.70;99.90
24518;DHT22;12678;51.336;12.406;2022-10-31T12:08:51;17.80;99.90
24518;DHT22;12678;51.336;12.406;2022-10-31T12:13:51;17.90;99.90
24518;DHT22;12678;51.336;12.406;2022-10-31T12:16:34;17.90;99.90
24518;DHT22;12678;51.336;12.406;2022-10-31T12:19:06;17.90;99.90
24518;DHT22;12678;51.336;12.406;2022-10-31T12:24:04;17.90;99.90
24518;DHT22;12678;51.336;12.406;2022-10-31T12:29:07;17.90;99.90
24518;DHT22;12678;51.336;12.406;2022-10-31T12:32:00;18.00;99.90
24518;DHT22;12678;51.336;12.406;2022-10-31T12:34:43;18.00;99.90
24518;DHT22;12678;51.336;12.406;2022-10-31T12:37:23;18.00;99.90
24518;DHT22;12678;51.336;12.406;2022-10-31T12:50:44;18.10;99.90
24518;DHT22;12678;51.336;12.406;2022-10-31T12:55:48;18.10;99.90
24518;DHT22;12678;51.336;12.406;2022-10-31T13:00:44;18.20;99.90
24518;DHT22;12678;51.336;12.406;2022-10-31T13:03:19;18.20;99.90
24518;DHT22;12678;51.336;12.406;2022-10-31T13:05:47;18.20;99.90
24518;DHT22;12678;51.336;12.406;2022-10-31T13:08:20;18.20;99.90
24518;DHT22;12678;51.336;12.406;2022-10-31T13:11:02;18.20;99.90
24518;DHT22;12678;51.336;12.406;2022-10-31T13:13:40;18.20;99.90
24518;DHT22;12678;51.336;12.406;2022-10-31T13:18:46;18.10;99.90
24518;DHT22;12678;51.336;12.406;2022-10-31T13:21:26;18.10;99.90
24518;DHT22;12678;51.336;12.406;2022-10-31T13:23:52;18.10;99.90
24518;DHT22;12678;51.336;12.406;2022-10-31T13:26:37;18.10;99.90
24518;DHT22;12678;51.336;12.406;2022-10-31T13:29:20;18.10;99.90
24518;DHT22;12678;51.336;12.406;2022-10-31T13:31:46;18.10;99.90
24518;DHT22;12678;51.336;12.406;2022-10-31T13:39:32;18.10;99.90
24518;DHT22;12678;51.336;12.406;2022-10-31T13:42:03;18.10;99.90
24518;DHT22;12678;51.336;12.406;2022-10-31T13:44:32;18.10;99.90
24518;DHT22;12678;51.336;12.406;2022-10-31T13:47:00;18.10;99.90
24518;DHT22;12678;51.336;12.406;2022-10-31T13:54:35;17.90;99.90
24518;DHT22;12678;51.336;12.406;2022-10-31T13:57:01;18.00;99.90
24518;DHT22;12678;51.336;12.406;2022-10-31T13:59:27;18.00;99.90
24518;DHT22;12678;51.336;12.406;2022-10-31T14:01:56;18.00;99.90
24518;DHT22;12678;51.336;12.406;2022-10-31T14:04:23;18.00;99.90
